sensor_id;sensor_type;location;lat;lon;timestamp;P1;durP1;ratioP1;P2;durP2;ratioP2
52576;SDS011;38469;53.562;10.048;2023-06-24T00:01:23;18.40;;;12.20;;
52576;SDS011;38469;53.562;10.048;2023-06-24T00:03:50;15.07;;;12.93;;
52576;SDS011;38469;53.562;10.048;2023-06-24T00:06:18;18.52;;;12.32;;
52576;SDS011;38469;53.562;10.048;2023-06-24T00:08:44;20.50;;;12.95;;
52576;SDS011;38469;53.562;10.048;2023-06-24T00:11:12;19.33;;;13.23;;
52576;SDS011;38469;53.562;10.048;2023-06-24T00:13:39;22.10;;;13.02;;
52576;SDS011;38469;53.562;10.048;2023-06-24T00:16:06;19.48;;;14.13;;
52576;SDS011;38469;53.562;10.048;2023-06-24T00:18:33;21.38;;;12.98;;
52576;SDS011;38469;53.562;10.048;2023-06-24T00:21:00;14.50;;;12.05;;
52576;SDS011;38469;53.562;10.048;2023-06-24T00:23:27;18.30;;;13.45;;
52576;SDS011;38469;53.562;10.048;2023-06-24T00:25:55;19.50;;;13.45;;
52576;SDS011;38469;53.562;10.048;2023-06-24T00:28:23;20.67;;;15.10;;
52576;SDS011;38469;53.562;10.048;2023-06-24T00:30:50;19.27;;;14.05;;
52576;SDS011;38469;53.562;10.048;2023-06-24T00:33:16;19.45;;;13.38;;
52576;SDS011;38469;53.562;10.048;2023-06-24T00:35:44;20.52;;;13.65;;
52576;SDS011;38469;53.562;10.048;2023-06-24T00:38:11;20.85;;;14.73;;
52576;SDS011;38469;53.562;10.048;2023-06-24T00:40:37;22.98;;;15.25;;
52576;SDS011;38469;53.562;10.048;2023-06-24T00:43:04;25.15;;;15.20;;
52576;SDS011;38469;53.562;10.048;2023-06-24T00:45:32;17.85;;;14.30;;
52576;SDS011;38469;53.562;10.048;2023-06-24T00:47:59;20.45;;;13.85;;
52576;SDS011;38469;53.562;10.048;2023-06-24T00:50:26;23.10;;;14.40;;
52576;SDS011;38469;53.562;10.048;2023-06-24T00:52:52;19.65;;;14.32;;
52576;SDS011;38469;53.562;10.048;2023-06-24T00:55:19;24.58;;;15.25;;
52576;SDS011;38469;53.562;10.048;2023-06-24T00:57:46;22.38;;;14.50;;
52576;SDS011;38469;53.562;10.048;2023-06-24T01:00:16;25.65;;;15.18;;
52576;SDS011;38469;53.562;10.048;2023-06-24T01:02:45;20.00;;;14.05;;
52576;SDS011;38469;53.562;10.048;2023-06-24T01:05:13;26.27;;;15.32;;
52576;SDS011;38469;53.562;10.048;2023-06-24T01:07:40;23.33;;;14.32;;
52576;SDS011;38469;53.562;10.048;2023-06-24T01:10:08;26.77;;;15.05;;
52576;SDS011;38469;53.562;10.048;2023-06-24T01:12:38;25.63;;;14.60;;
52576;SDS011;38469;53.562;10.048;2023-06-24T01:15:09;20.67;;;14.43;;
52576;SDS011;38469;53.562;10.048;2023-06-24T01:17:37;22.75;;;13.95;;
52576;SDS011;38469;53.562;10.048;2023-06-24T01:20:20;19.45;;;14.23;;
52576;SDS011;38469;53.562;10.048;2023-06-24T01:23:06;23.65;;;14.68;;
52576;SDS011;38469;53.562;10.048;2023-06-24T01:25:52;20.05;;;13.95;;
52576;SDS011;38469;53.562;10.048;2023-06-24T01:28:45;21.35;;;13.57;;
52576;SDS011;38469;53.562;10.048;2023-06-24T01:31:31;24.17;;;14.10;;
52576;SDS011;38469;53.562;10.048;2023-06-24T01:34:05;21.58;;;13.40;;
52576;SDS011;38469;53.562;10.048;2023-06-24T01:36:38;21.17;;;13.35;;
52576;SDS011;38469;53.562;10.048;2023-06-24T01:39:09;20.23;;;13.75;;
52576;SDS011;38469;53.562;10.048;2023-06-24T01:41:42;25.15;;;14.00;;
52576;SDS011;38469;53.562;10.048;2023-06-24T01:44:13;23.73;;;13.95;;
52576;SDS011;38469;53.562;10.048;2023-06-24T01:46:44;20.83;;;13.95;;
52576;SDS011;38469;53.562;10.048;2023-06-24T01:49:13;19.65;;;13.13;;
52576;SDS011;38469;53.562;10.048;2023-06-24T01:51:42;23.77;;;13.90;;
52576;SDS011;38469;53.562;10.048;2023-06-24T01:54:13;21.75;;;13.88;;
52576;SDS011;38469;53.562;10.048;2023-06-24T01:56:44;18.50;;;12.90;;
52576;SDS011;38469;53.562;10.048;2023-06-24T01:59:13;22.65;;;13.85;;
52576;SDS011;38469;53.562;10.048;2023-06-24T02:01:43;21.05;;;14.10;;
52576;SDS011;38469;53.562;10.048;2023-06-24T02:04:11;21.42;;;13.77;;
52576;SDS011;38469;53.562;10.048;2023-06-24T02:06:40;21.15;;;13.32;;
52576;SDS011;38469;53.562;10.048;2023-06-24T02:09:07;21.67;;;13.55;;
52576;SDS011;38469;53.562;10.048;2023-06-24T02:11:35;26.17;;;14.05;;
52576;SDS011;38469;53.562;10.048;2023-06-24T02:14:03;20.50;;;14.45;;
52576;SDS011;38469;53.562;10.048;2023-06-24T02:16:31;22.23;;;14.48;;
52576;SDS011;38469;53.562;10.048;2023-06-24T02:19:01;24.52;;;14.50;;
52576;SDS011;38469;53.562;10.048;2023-06-24T02:21:28;22.77;;;15.10;;
52576;SDS011;38469;53.562;10.048;2023-06-24T02:23:55;23.75;;;14.73;;
52576;SDS011;38469;53.562;10.048;2023-06-24T02:26:23;23.60;;;14.73;;
52576;SDS011;38469;53.562;10.048;2023-06-24T02:28:50;24.02;;;14.63;;
52576;SDS011;38469;53.562;10.048;2023-06-24T02:31:18;26.73;;;14.90;;
52576;SDS011;38469;53.562;10.048;2023-06-24T02:33:45;23.98;;;15.13;;
52576;SDS011;38469;53.562;10.048;2023-06-24T02:36:13;25.27;;;16.05;;
52576;SDS011;38469;53.562;10.048;2023-06-24T02:38:39;27.85;;;16.38;;
52576;SDS011;38469;53.562;10.048;2023-06-24T02:41:06;30.13;;;15.88;;
52576;SDS011;38469;53.562;10.048;2023-06-24T02:43:33;25.48;;;15.25;;
52576;SDS011;38469;53.562;10.048;2023-06-24T02:46:00;29.50;;;16.48;;
52576;SDS011;38469;53.562;10.048;2023-06-24T02:48:28;29.58;;;16.35;;
52576;SDS011;38469;53.562;10.048;2023-06-24T02:50:57;30.20;;;16.08;;
52576;SDS011;38469;53.562;10.048;2023-06-24T02:53:25;31.70;;;17.10;;
52576;SDS011;38469;53.562;10.048;2023-06-24T02:55:52;30.70;;;16.95;;
52576;SDS011;38469;53.562;10.048;2023-06-24T02:58:21;36.63;;;17.20;;
52576;SDS011;38469;53.562;10.048;2023-06-24T03:00:49;29.17;;;15.48;;
52576;SDS011;38469;53.562;10.048;2023-06-24T03:03:16;28.70;;;16.23;;
52576;SDS011;38469;53.562;10.048;2023-06-24T03:05:43;29.35;;;16.55;;
52576;SDS011;38469;53.562;10.048;2023-06-24T03:08:13;30.38;;;15.60;;
52576;SDS011;38469;53.562;10.048;2023-06-24T03:10:41;27.85;;;15.70;;
52576;SDS011;38469;53.562;10.048;2023-06-24T03:13:08;31.70;;;16.83;;
52576;SDS011;38469;53.562;10.048;2023-06-24T03:15:34;31.60;;;17.20;;
52576;SDS011;38469;53.562;10.048;2023-06-24T03:18:01;28.70;;;16.38;;
52576;SDS011;38469;53.562;10.048;2023-06-24T03:20:27;29.90;;;16.38;;
52576;SDS011;38469;53.562;10.048;2023-06-24T03:22:58;29.27;;;17.17;;
52576;SDS011;38469;53.562;10.048;2023-06-24T03:25:25;27.55;;;16.80;;
52576;SDS011;38469;53.562;10.048;2023-06-24T03:27:52;30.27;;;16.50;;
52576;SDS011;38469;53.562;10.048;2023-06-24T03:30:19;29.85;;;17.05;;
52576;SDS011;38469;53.562;10.048;2023-06-24T03:32:45;27.50;;;16.60;;
52576;SDS011;38469;53.562;10.048;2023-06-24T03:35:12;30.67;;;18.13;;
52576;SDS011;38469;53.562;10.048;2023-06-24T03:37:38;33.60;;;17.85;;
52576;SDS011;38469;53.562;10.048;2023-06-24T03:40:05;34.83;;;18.20;;
52576;SDS011;38469;53.562;10.048;2023-06-24T03:42:33;33.28;;;18.75;;
52576;SDS011;38469;53.562;10.048;2023-06-24T03:45:01;36.63;;;18.27;;
52576;SDS011;38469;53.562;10.048;2023-06-24T03:47:28;33.75;;;18.67;;
52576;SDS011;38469;53.562;10.048;2023-06-24T03:49:54;39.08;;;19.77;;
52576;SDS011;38469;53.562;10.048;2023-06-24T03:52:20;32.88;;;18.75;;
52576;SDS011;38469;53.562;10.048;2023-06-24T03:54:47;33.63;;;19.35;;
52576;SDS011;38469;53.562;10.048;2023-06-24T03:57:13;34.65;;;18.40;;
52576;SDS011;38469;53.562;10.048;2023-06-24T03:59:40;34.08;;;17.77;;
52576;SDS011;38469;53.562;10.048;2023-06-24T04:02:07;31.85;;;19.35;;
52576;SDS011;38469;53.562;10.048;2023-06-24T04:04:34;36.30;;;18.58;;
52576;SDS011;38469;53.562;10.048;2023-06-24T04:07:01;36.97;;;18.90;;
52576;SDS011;38469;53.562;10.048;2023-06-24T04:09:28;31.67;;;17.52;;
52576;SDS011;38469;53.562;10.048;2023-06-24T04:11:54;31.52;;;18.05;;
52576;SDS011;38469;53.562;10.048;2023-06-24T04:14:21;36.38;;;17.55;;
52576;SDS011;38469;53.562;10.048;2023-06-24T04:16:47;25.42;;;16.38;;
52576;SDS011;38469;53.562;10.048;2023-06-24T04:19:16;28.08;;;16.13;;
52576;SDS011;38469;53.562;10.048;2023-06-24T04:21:42;31.50;;;15.10;;
52576;SDS011;38469;53.562;10.048;2023-06-24T04:24:09;19.98;;;13.93;;
52576;SDS011;38469;53.562;10.048;2023-06-24T04:26:35;27.10;;;14.13;;
52576;SDS011;38469;53.562;10.048;2023-06-24T04:29:02;18.65;;;13.27;;
52576;SDS011;38469;53.562;10.048;2023-06-24T04:31:30;19.52;;;12.27;;
52576;SDS011;38469;53.562;10.048;2023-06-24T04:33:56;18.60;;;11.82;;
52576;SDS011;38469;53.562;10.048;2023-06-24T04:36:24;17.13;;;12.20;;
52576;SDS011;38469;53.562;10.048;2023-06-24T04:38:51;22.95;;;11.13;;
52576;SDS011;38469;53.562;10.048;2023-06-24T04:41:17;16.95;;;10.68;;
52576;SDS011;38469;53.562;10.048;2023-06-24T04:43:44;14.75;;;10.02;;
52576;SDS011;38469;53.562;10.048;2023-06-24T04:46:10;12.13;;;9.80;;
52576;SDS011;38469;53.562;10.048;2023-06-24T04:48:37;12.15;;;9.43;;
52576;SDS011;38469;53.562;10.048;2023-06-24T04:51:03;13.85;;;9.65;;
52576;SDS011;38469;53.562;10.048;2023-06-24T04:53:31;12.32;;;9.30;;
52576;SDS011;38469;53.562;10.048;2023-06-24T04:55:58;13.38;;;8.75;;
52576;SDS011;38469;53.562;10.048;2023-06-24T04:58:25;10.77;;;8.20;;
52576;SDS011;38469;53.562;10.048;2023-06-24T05:00:52;13.65;;;7.88;;
52576;SDS011;38469;53.562;10.048;2023-06-24T05:03:18;10.10;;;8.02;;
52576;SDS011;38469;53.562;10.048;2023-06-24T05:05:45;12.50;;;8.27;;
52576;SDS011;38469;53.562;10.048;2023-06-24T05:08:11;12.23;;;7.50;;
52576;SDS011;38469;53.562;10.048;2023-06-24T05:10:39;13.93;;;8.32;;
52576;SDS011;38469;53.562;10.048;2023-06-24T05:13:06;13.23;;;8.10;;
52576;SDS011;38469;53.562;10.048;2023-06-24T05:15:32;11.52;;;7.80;;
52576;SDS011;38469;53.562;10.048;2023-06-24T05:17:59;14.73;;;7.20;;
52576;SDS011;38469;53.562;10.048;2023-06-24T05:20:25;10.32;;;6.95;;
52576;SDS011;38469;53.562;10.048;2023-06-24T05:22:52;8.23;;;7.13;;
52576;SDS011;38469;53.562;10.048;2023-06-24T05:25:18;11.18;;;7.43;;
52576;SDS011;38469;53.562;10.048;2023-06-24T05:27:46;9.45;;;6.97;;
52576;SDS011;38469;53.562;10.048;2023-06-24T05:30:13;9.93;;;6.22;;
52576;SDS011;38469;53.562;10.048;2023-06-24T05:32:39;8.23;;;6.50;;
52576;SDS011;38469;53.562;10.048;2023-06-24T05:35:06;16.00;;;7.28;;
52576;SDS011;38469;53.562;10.048;2023-06-24T05:37:33;10.32;;;6.47;;
52576;SDS011;38469;53.562;10.048;2023-06-24T05:39:59;11.98;;;6.32;;
52576;SDS011;38469;53.562;10.048;2023-06-24T05:42:27;9.13;;;6.28;;
52576;SDS011;38469;53.562;10.048;2023-06-24T05:44:55;8.15;;;6.40;;
52576;SDS011;38469;53.562;10.048;2023-06-24T05:47:21;10.70;;;6.53;;
52576;SDS011;38469;53.562;10.048;2023-06-24T05:49:48;9.48;;;6.05;;
52576;SDS011;38469;53.562;10.048;2023-06-24T05:52:14;9.65;;;5.43;;
52576;SDS011;38469;53.562;10.048;2023-06-24T05:54:40;10.45;;;5.43;;
52576;SDS011;38469;53.562;10.048;2023-06-24T05:57:07;7.97;;;5.43;;
52576;SDS011;38469;53.562;10.048;2023-06-24T05:59:35;9.75;;;6.07;;
52576;SDS011;38469;53.562;10.048;2023-06-24T06:02:03;9.40;;;5.93;;
52576;SDS011;38469;53.562;10.048;2023-06-24T06:04:29;7.32;;;5.47;;
52576;SDS011;38469;53.562;10.048;2023-06-24T06:06:56;6.78;;;5.15;;
52576;SDS011;38469;53.562;10.048;2023-06-24T06:09:22;7.93;;;5.25;;
52576;SDS011;38469;53.562;10.048;2023-06-24T06:11:48;5.97;;;5.05;;
52576;SDS011;38469;53.562;10.048;2023-06-24T06:14:15;11.13;;;5.55;;
52576;SDS011;38469;53.562;10.048;2023-06-24T06:16:41;6.72;;;5.80;;
52576;SDS011;38469;53.562;10.048;2023-06-24T06:19:09;6.20;;;5.28;;
52576;SDS011;38469;53.562;10.048;2023-06-24T06:21:36;7.82;;;5.03;;
52576;SDS011;38469;53.562;10.048;2023-06-24T06:24:02;7.65;;;5.20;;
52576;SDS011;38469;53.562;10.048;2023-06-24T06:26:29;6.28;;;4.82;;
52576;SDS011;38469;53.562;10.048;2023-06-24T06:28:56;4.68;;;4.28;;
52576;SDS011;38469;53.562;10.048;2023-06-24T06:31:22;6.63;;;4.63;;
52576;SDS011;38469;53.562;10.048;2023-06-24T06:33:50;10.63;;;4.60;;
52576;SDS011;38469;53.562;10.048;2023-06-24T06:36:18;6.25;;;4.25;;
52576;SDS011;38469;53.562;10.048;2023-06-24T06:38:45;8.02;;;3.90;;
52576;SDS011;38469;53.562;10.048;2023-06-24T06:41:11;4.53;;;4.00;;
52576;SDS011;38469;53.562;10.048;2023-06-24T06:43:37;7.75;;;4.70;;
52576;SDS011;38469;53.562;10.048;2023-06-24T06:46:04;5.15;;;4.30;;
52576;SDS011;38469;53.562;10.048;2023-06-24T06:48:30;7.05;;;4.97;;
52576;SDS011;38469;53.562;10.048;2023-06-24T06:50:57;6.75;;;4.15;;
52576;SDS011;38469;53.562;10.048;2023-06-24T06:53:25;5.25;;;4.47;;
52576;SDS011;38469;53.562;10.048;2023-06-24T06:55:51;5.63;;;4.13;;
52576;SDS011;38469;53.562;10.048;2023-06-24T06:58:17;7.82;;;4.30;;
52576;SDS011;38469;53.562;10.048;2023-06-24T07:00:44;4.10;;;3.60;;
52576;SDS011;38469;53.562;10.048;2023-06-24T07:03:11;6.70;;;3.95;;
52576;SDS011;38469;53.562;10.048;2023-06-24T07:05:38;5.75;;;4.05;;
52576;SDS011;38469;53.562;10.048;2023-06-24T07:08:04;5.88;;;3.78;;
52576;SDS011;38469;53.562;10.048;2023-06-24T07:10:32;7.07;;;4.20;;
52576;SDS011;38469;53.562;10.048;2023-06-24T07:12:59;7.25;;;3.60;;
52576;SDS011;38469;53.562;10.048;2023-06-24T07:15:26;6.35;;;3.78;;
52576;SDS011;38469;53.562;10.048;2023-06-24T07:17:53;7.03;;;3.40;;
52576;SDS011;38469;53.562;10.048;2023-06-24T07:20:20;6.50;;;3.40;;
52576;SDS011;38469;53.562;10.048;2023-06-24T07:22:47;7.05;;;2.75;;
52576;SDS011;38469;53.562;10.048;2023-06-24T07:25:14;4.07;;;2.72;;
52576;SDS011;38469;53.562;10.048;2023-06-24T07:27:42;5.30;;;3.03;;
52576;SDS011;38469;53.562;10.048;2023-06-24T07:30:08;3.63;;;2.58;;
52576;SDS011;38469;53.562;10.048;2023-06-24T07:32:35;4.60;;;2.35;;
52576;SDS011;38469;53.562;10.048;2023-06-24T07:35:01;3.90;;;2.25;;
52576;SDS011;38469;53.562;10.048;2023-06-24T07:37:28;4.30;;;2.30;;
52576;SDS011;38469;53.562;10.048;2023-06-24T07:39:54;4.88;;;2.95;;
52576;SDS011;38469;53.562;10.048;2023-06-24T07:42:21;4.38;;;2.42;;
52576;SDS011;38469;53.562;10.048;2023-06-24T07:44:49;5.65;;;3.05;;
52576;SDS011;38469;53.562;10.048;2023-06-24T07:47:16;5.38;;;2.90;;
52576;SDS011;38469;53.562;10.048;2023-06-24T07:49:43;3.80;;;3.20;;
52576;SDS011;38469;53.562;10.048;2023-06-24T07:52:10;5.30;;;2.92;;
52576;SDS011;38469;53.562;10.048;2023-06-24T07:54:36;4.03;;;2.60;;
52576;SDS011;38469;53.562;10.048;2023-06-24T07:57:03;5.07;;;2.92;;
52576;SDS011;38469;53.562;10.048;2023-06-24T07:59:30;3.58;;;2.80;;
52576;SDS011;38469;53.562;10.048;2023-06-24T08:01:57;5.97;;;3.40;;
52576;SDS011;38469;53.562;10.048;2023-06-24T08:04:24;3.85;;;3.40;;
52576;SDS011;38469;53.562;10.048;2023-06-24T08:06:50;7.35;;;3.45;;
52576;SDS011;38469;53.562;10.048;2023-06-24T08:09:17;4.30;;;3.03;;
52576;SDS011;38469;53.562;10.048;2023-06-24T08:11:44;8.18;;;3.30;;
52576;SDS011;38469;53.562;10.048;2023-06-24T08:14:10;8.13;;;3.70;;
52576;SDS011;38469;53.562;10.048;2023-06-24T08:16:37;4.25;;;3.40;;
52576;SDS011;38469;53.562;10.048;2023-06-24T08:19:05;6.53;;;3.47;;
52576;SDS011;38469;53.562;10.048;2023-06-24T08:21:31;6.90;;;3.97;;
52576;SDS011;38469;53.562;10.048;2023-06-24T08:23:59;5.03;;;3.83;;
52576;SDS011;38469;53.562;10.048;2023-06-24T08:26:26;3.92;;;3.33;;
52576;SDS011;38469;53.562;10.048;2023-06-24T08:28:52;5.95;;;3.80;;
52576;SDS011;38469;53.562;10.048;2023-06-24T08:31:18;4.50;;;3.80;;
52576;SDS011;38469;53.562;10.048;2023-06-24T08:33:47;5.70;;;4.07;;
52576;SDS011;38469;53.562;10.048;2023-06-24T08:36:20;7.22;;;4.05;;
52576;SDS011;38469;53.562;10.048;2023-06-24T08:38:48;5.47;;;4.18;;
52576;SDS011;38469;53.562;10.048;2023-06-24T08:41:14;4.97;;;4.22;;
52576;SDS011;38469;53.562;10.048;2023-06-24T08:43:40;10.07;;;4.70;;
52576;SDS011;38469;53.562;10.048;2023-06-24T08:46:08;5.38;;;3.83;;
52576;SDS011;38469;53.562;10.048;2023-06-24T08:48:35;5.28;;;3.92;;
52576;SDS011;38469;53.562;10.048;2023-06-24T08:51:05;5.30;;;4.50;;
52576;SDS011;38469;53.562;10.048;2023-06-24T08:53:35;5.85;;;3.90;;
52576;SDS011;38469;53.562;10.048;2023-06-24T08:56:03;5.40;;;3.70;;
52576;SDS011;38469;53.562;10.048;2023-06-24T08:58:30;6.60;;;4.03;;
52576;SDS011;38469;53.562;10.048;2023-06-24T09:00:57;6.72;;;3.78;;
52576;SDS011;38469;53.562;10.048;2023-06-24T09:03:23;9.55;;;4.32;;
52576;SDS011;38469;53.562;10.048;2023-06-24T09:05:50;6.57;;;3.42;;
52576;SDS011;38469;53.562;10.048;2023-06-24T09:08:17;7.57;;;3.92;;
52576;SDS011;38469;53.562;10.048;2023-06-24T09:10:45;5.93;;;3.70;;
52576;SDS011;38469;53.562;10.048;2023-06-24T09:13:18;4.90;;;3.53;;
52576;SDS011;38469;53.562;10.048;2023-06-24T09:15:44;3.80;;;3.35;;
52576;SDS011;38469;53.562;10.048;2023-06-24T09:18:11;4.35;;;3.60;;
52576;SDS011;38469;53.562;10.048;2023-06-24T09:20:41;4.75;;;3.47;;
52576;SDS011;38469;53.562;10.048;2023-06-24T09:23:09;3.85;;;3.38;;
52576;SDS011;38469;53.562;10.048;2023-06-24T09:25:36;3.65;;;3.30;;
52576;SDS011;38469;53.562;10.048;2023-06-24T09:28:05;7.53;;;3.78;;
52576;SDS011;38469;53.562;10.048;2023-06-24T09:30:34;5.07;;;3.38;;
52576;SDS011;38469;53.562;10.048;2023-06-24T09:33:01;3.45;;;3.15;;
52576;SDS011;38469;53.562;10.048;2023-06-24T09:35:27;6.00;;;3.25;;
52576;SDS011;38469;53.562;10.048;2023-06-24T09:37:54;6.53;;;3.40;;
52576;SDS011;38469;53.562;10.048;2023-06-24T09:40:21;4.57;;;3.55;;
52576;SDS011;38469;53.562;10.048;2023-06-24T09:42:49;4.15;;;3.38;;
52576;SDS011;38469;53.562;10.048;2023-06-24T09:45:20;5.15;;;3.53;;
52576;SDS011;38469;53.562;10.048;2023-06-24T09:47:48;4.53;;;3.38;;
52576;SDS011;38469;53.562;10.048;2023-06-24T09:50:14;6.20;;;3.72;;
52576;SDS011;38469;53.562;10.048;2023-06-24T09:52:40;4.05;;;3.65;;
52576;SDS011;38469;53.562;10.048;2023-06-24T09:55:09;6.82;;;4.15;;
52576;SDS011;38469;53.562;10.048;2023-06-24T09:57:37;7.93;;;5.15;;
52576;SDS011;38469;53.562;10.048;2023-06-24T10:00:07;13.05;;;4.13;;
52576;SDS011;38469;53.562;10.048;2023-06-24T10:02:37;7.63;;;4.43;;
52576;SDS011;38469;53.562;10.048;2023-06-24T10:05:04;5.93;;;4.43;;
52576;SDS011;38469;53.562;10.048;2023-06-24T10:07:31;4.40;;;4.00;;
52576;SDS011;38469;53.562;10.048;2023-06-24T10:10:01;5.63;;;3.90;;
52576;SDS011;38469;53.562;10.048;2023-06-24T10:12:28;6.63;;;4.63;;
52576;SDS011;38469;53.562;10.048;2023-06-24T10:14:54;8.13;;;3.63;;
52576;SDS011;38469;53.562;10.048;2023-06-24T10:17:21;5.65;;;4.07;;
52576;SDS011;38469;53.562;10.048;2023-06-24T10:19:51;6.72;;;4.03;;
52576;SDS011;38469;53.562;10.048;2023-06-24T10:22:18;4.65;;;4.07;;
52576;SDS011;38469;53.562;10.048;2023-06-24T10:24:48;3.53;;;3.22;;
52576;SDS011;38469;53.562;10.048;2023-06-24T10:27:17;4.18;;;3.78;;
52576;SDS011;38469;53.562;10.048;2023-06-24T10:29:47;5.60;;;4.10;;
52576;SDS011;38469;53.562;10.048;2023-06-24T10:32:14;4.63;;;3.65;;
52576;SDS011;38469;53.562;10.048;2023-06-24T10:34:41;4.95;;;4.15;;
52576;SDS011;38469;53.562;10.048;2023-06-24T10:37:11;4.78;;;4.20;;
52576;SDS011;38469;53.562;10.048;2023-06-24T10:39:39;5.40;;;3.88;;
52576;SDS011;38469;53.562;10.048;2023-06-24T10:42:30;6.65;;;4.30;;
52576;SDS011;38469;53.562;10.048;2023-06-24T10:45:12;4.70;;;3.80;;
52576;SDS011;38469;53.562;10.048;2023-06-24T10:47:41;5.25;;;3.75;;
52576;SDS011;38469;53.562;10.048;2023-06-24T10:50:09;3.90;;;3.58;;
52576;SDS011;38469;53.562;10.048;2023-06-24T10:52:38;3.92;;;3.25;;
52576;SDS011;38469;53.562;10.048;2023-06-24T10:55:06;3.33;;;3.03;;
52576;SDS011;38469;53.562;10.048;2023-06-24T10:57:33;4.32;;;3.40;;
52576;SDS011;38469;53.562;10.048;2023-06-24T11:00:00;4.60;;;3.63;;
52576;SDS011;38469;53.562;10.048;2023-06-24T11:02:28;5.57;;;3.50;;
52576;SDS011;38469;53.562;10.048;2023-06-24T11:04:55;4.78;;;3.67;;
52576;SDS011;38469;53.562;10.048;2023-06-24T11:07:24;4.45;;;3.30;;
52576;SDS011;38469;53.562;10.048;2023-06-24T11:09:52;4.05;;;3.67;;
52576;SDS011;38469;53.562;10.048;2023-06-24T11:12:22;3.83;;;3.38;;
52576;SDS011;38469;53.562;10.048;2023-06-24T11:14:50;5.80;;;4.32;;
52576;SDS011;38469;53.562;10.048;2023-06-24T11:17:16;4.63;;;4.10;;
52576;SDS011;38469;53.562;10.048;2023-06-24T11:19:45;5.55;;;4.25;;
52576;SDS011;38469;53.562;10.048;2023-06-24T11:22:11;4.38;;;3.70;;
52576;SDS011;38469;53.562;10.048;2023-06-24T11:24:38;4.75;;;4.00;;
52576;SDS011;38469;53.562;10.048;2023-06-24T11:27:07;6.57;;;3.97;;
52576;SDS011;38469;53.562;10.048;2023-06-24T11:29:34;4.38;;;3.97;;
52576;SDS011;38469;53.562;10.048;2023-06-24T11:32:01;4.65;;;4.00;;
52576;SDS011;38469;53.562;10.048;2023-06-24T11:34:28;6.05;;;4.15;;
52576;SDS011;38469;53.562;10.048;2023-06-24T11:36:55;5.82;;;3.90;;
52576;SDS011;38469;53.562;10.048;2023-06-24T11:39:22;4.65;;;4.15;;
52576;SDS011;38469;53.562;10.048;2023-06-24T11:41:50;6.93;;;3.92;;
52576;SDS011;38469;53.562;10.048;2023-06-24T11:44:18;12.13;;;3.97;;
52576;SDS011;38469;53.562;10.048;2023-06-24T11:46:46;4.43;;;3.53;;
52576;SDS011;38469;53.562;10.048;2023-06-24T11:49:12;3.60;;;3.30;;
52576;SDS011;38469;53.562;10.048;2023-06-24T11:51:45;6.00;;;4.43;;
52576;SDS011;38469;53.562;10.048;2023-06-24T11:54:13;4.67;;;4.10;;
52576;SDS011;38469;53.562;10.048;2023-06-24T11:56:41;5.32;;;3.95;;
52576;SDS011;38469;53.562;10.048;2023-06-24T11:59:15;3.88;;;3.58;;
52576;SDS011;38469;53.562;10.048;2023-06-24T12:01:44;4.17;;;3.77;;
52576;SDS011;38469;53.562;10.048;2023-06-24T12:04:12;4.28;;;3.88;;
52576;SDS011;38469;53.562;10.048;2023-06-24T12:06:39;6.07;;;4.18;;
52576;SDS011;38469;53.562;10.048;2023-06-24T12:09:05;7.00;;;4.20;;
52576;SDS011;38469;53.562;10.048;2023-06-24T12:11:32;4.57;;;3.78;;
52576;SDS011;38469;53.562;10.048;2023-06-24T12:13:59;5.03;;;3.72;;
52576;SDS011;38469;53.562;10.048;2023-06-24T12:16:25;4.90;;;3.63;;
52576;SDS011;38469;53.562;10.048;2023-06-24T12:18:53;4.18;;;3.50;;
52576;SDS011;38469;53.562;10.048;2023-06-24T12:21:20;5.32;;;3.55;;
52576;SDS011;38469;53.562;10.048;2023-06-24T12:23:46;5.75;;;3.88;;
52576;SDS011;38469;53.562;10.048;2023-06-24T12:26:13;5.35;;;3.42;;
52576;SDS011;38469;53.562;10.048;2023-06-24T12:28:40;4.53;;;3.70;;
52576;SDS011;38469;53.562;10.048;2023-06-24T12:31:06;4.03;;;3.42;;
52576;SDS011;38469;53.562;10.048;2023-06-24T12:33:33;4.28;;;3.47;;
52576;SDS011;38469;53.562;10.048;2023-06-24T12:36:01;5.10;;;3.65;;
52576;SDS011;38469;53.562;10.048;2023-06-24T12:38:27;6.63;;;3.92;;
52576;SDS011;38469;53.562;10.048;2023-06-24T12:40:53;4.47;;;3.40;;
52576;SDS011;38469;53.562;10.048;2023-06-24T12:43:20;4.05;;;3.45;;
52576;SDS011;38469;53.562;10.048;2023-06-24T12:45:46;5.00;;;3.80;;
52576;SDS011;38469;53.562;10.048;2023-06-24T12:48:13;4.28;;;3.58;;
52576;SDS011;38469;53.562;10.048;2023-06-24T12:50:40;3.85;;;3.55;;
52576;SDS011;38469;53.562;10.048;2023-06-24T12:53:08;3.53;;;3.15;;
52576;SDS011;38469;53.562;10.048;2023-06-24T12:55:35;4.20;;;3.80;;
52576;SDS011;38469;53.562;10.048;2023-06-24T12:58:02;6.22;;;3.50;;
52576;SDS011;38469;53.562;10.048;2023-06-24T13:00:28;4.72;;;4.28;;
52576;SDS011;38469;53.562;10.048;2023-06-24T13:02:55;3.92;;;3.47;;
52576;SDS011;38469;53.562;10.048;2023-06-24T13:05:21;5.50;;;3.65;;
52576;SDS011;38469;53.562;10.048;2023-06-24T13:07:48;5.55;;;3.42;;
52576;SDS011;38469;53.562;10.048;2023-06-24T13:10:15;4.13;;;3.65;;
52576;SDS011;38469;53.562;10.048;2023-06-24T13:12:42;4.05;;;3.60;;
52576;SDS011;38469;53.562;10.048;2023-06-24T13:15:09;3.55;;;3.22;;
52576;SDS011;38469;53.562;10.048;2023-06-24T13:17:36;4.47;;;3.83;;
52576;SDS011;38469;53.562;10.048;2023-06-24T13:20:03;4.13;;;3.50;;
52576;SDS011;38469;53.562;10.048;2023-06-24T13:22:30;3.90;;;3.40;;
52576;SDS011;38469;53.562;10.048;2023-06-24T13:24:56;6.05;;;3.83;;
52576;SDS011;38469;53.562;10.048;2023-06-24T13:27:24;4.07;;;3.67;;
52576;SDS011;38469;53.562;10.048;2023-06-24T13:29:51;4.03;;;3.63;;
52576;SDS011;38469;53.562;10.048;2023-06-24T13:32:17;4.55;;;3.55;;
52576;SDS011;38469;53.562;10.048;2023-06-24T13:34:44;5.55;;;3.78;;
52576;SDS011;38469;53.562;10.048;2023-06-24T13:37:11;3.65;;;3.35;;
52576;SDS011;38469;53.562;10.048;2023-06-24T13:39:37;3.95;;;3.42;;
52576;SDS011;38469;53.562;10.048;2023-06-24T13:42:04;7.57;;;3.40;;
52576;SDS011;38469;53.562;10.048;2023-06-24T13:44:32;3.53;;;3.22;;
52576;SDS011;38469;53.562;10.048;2023-06-24T13:46:59;4.97;;;3.88;;
52576;SDS011;38469;53.562;10.048;2023-06-24T13:49:25;4.15;;;3.75;;
52576;SDS011;38469;53.562;10.048;2023-06-24T13:51:52;8.10;;;3.38;;
52576;SDS011;38469;53.562;10.048;2023-06-24T13:54:18;9.50;;;4.18;;
52576;SDS011;38469;53.562;10.048;2023-06-24T13:56:44;8.20;;;3.78;;
52576;SDS011;38469;53.562;10.048;2023-06-24T13:59:11;5.25;;;3.67;;
52576;SDS011;38469;53.562;10.048;2023-06-24T14:01:39;7.32;;;4.28;;
52576;SDS011;38469;53.562;10.048;2023-06-24T14:04:05;4.88;;;3.33;;
52576;SDS011;38469;53.562;10.048;2023-06-24T14:06:32;3.50;;;3.20;;
52576;SDS011;38469;53.562;10.048;2023-06-24T14:08:58;4.32;;;3.92;;
52576;SDS011;38469;53.562;10.048;2023-06-24T14:11:24;3.80;;;3.28;;
52576;SDS011;38469;53.562;10.048;2023-06-24T14:13:51;7.10;;;3.60;;
52576;SDS011;38469;53.562;10.048;2023-06-24T14:16:17;4.00;;;3.60;;
52576;SDS011;38469;53.562;10.048;2023-06-24T14:18:45;4.75;;;3.63;;
52576;SDS011;38469;53.562;10.048;2023-06-24T14:21:12;5.63;;;3.90;;
52576;SDS011;38469;53.562;10.048;2023-06-24T14:23:38;4.60;;;3.60;;
52576;SDS011;38469;53.562;10.048;2023-06-24T14:26:05;5.72;;;3.90;;
52576;SDS011;38469;53.562;10.048;2023-06-24T14:28:31;3.78;;;3.47;;